sensor_id;sensor_type;location;lat;lon;timestamp;P1;durP1;ratioP1;P2;durP2;ratioP2
67776;SDS011;54576;52.020;5.536;2023-09-18T00:00:17;30.83;;;17.40;;
67776;SDS011;54576;52.020;5.536;2023-09-18T00:02:43;27.63;;;17.20;;
67776;SDS011;54576;52.020;5.536;2023-09-18T00:05:09;30.25;;;18.08;;
67776;SDS011;54576;52.020;5.536;2023-09-18T00:07:36;40.15;;;17.88;;
67776;SDS011;54576;52.020;5.536;2023-09-18T00:10:02;37.05;;;17.83;;
67776;SDS011;54576;52.020;5.536;2023-09-18T00:12:28;35.30;;;17.65;;
67776;SDS011;54576;52.020;5.536;2023-09-18T00:14:54;25.33;;;17.52;;
67776;SDS011;54576;52.020;5.536;2023-09-18T00:17:20;25.95;;;17.90;;
67776;SDS011;54576;52.020;5.536;2023-09-18T00:19:47;32.83;;;18.92;;
67776;SDS011;54576;52.020;5.536;2023-09-18T00:22:13;28.80;;;18.27;;
67776;SDS011;54576;52.020;5.536;2023-09-18T00:24:39;42.40;;;19.75;;
67776;SDS011;54576;52.020;5.536;2023-09-18T00:27:05;34.25;;;20.40;;
67776;SDS011;54576;52.020;5.536;2023-09-18T00:29:31;28.10;;;19.83;;
67776;SDS011;54576;52.020;5.536;2023-09-18T00:32:00;38.08;;;19.05;;
67776;SDS011;54576;52.020;5.536;2023-09-18T00:34:26;32.75;;;18.35;;
67776;SDS011;54576;52.020;5.536;2023-09-18T00:36:52;30.38;;;18.55;;
67776;SDS011;54576;52.020;5.536;2023-09-18T00:39:18;36.67;;;21.35;;
67776;SDS011;54576;52.020;5.536;2023-09-18T00:41:45;30.85;;;18.20;;
67776;SDS011;54576;52.020;5.536;2023-09-18T00:44:14;32.70;;;18.40;;
67776;SDS011;54576;52.020;5.536;2023-09-18T00:46:40;42.42;;;23.15;;
67776;SDS011;54576;52.020;5.536;2023-09-18T00:49:12;36.60;;;20.92;;
67776;SDS011;54576;52.020;5.536;2023-09-18T00:51:38;34.55;;;20.50;;
67776;SDS011;54576;52.020;5.536;2023-09-18T00:54:05;28.27;;;20.10;;
67776;SDS011;54576;52.020;5.536;2023-09-18T00:56:32;27.58;;;19.05;;
67776;SDS011;54576;52.020;5.536;2023-09-18T00:58:58;30.15;;;19.50;;
67776;SDS011;54576;52.020;5.536;2023-09-18T01:01:25;28.05;;;19.98;;
67776;SDS011;54576;52.020;5.536;2023-09-18T01:03:51;33.78;;;20.30;;
67776;SDS011;54576;52.020;5.536;2023-09-18T01:06:18;46.67;;;20.58;;
67776;SDS011;54576;52.020;5.536;2023-09-18T01:08:46;34.70;;;20.55;;
67776;SDS011;54576;52.020;5.536;2023-09-18T01:11:19;30.92;;;20.00;;
67776;SDS011;54576;52.020;5.536;2023-09-18T01:13:51;27.35;;;19.17;;
67776;SDS011;54576;52.020;5.536;2023-09-18T01:16:27;30.65;;;19.27;;
67776;SDS011;54576;52.020;5.536;2023-09-18T01:18:56;31.05;;;17.98;;
67776;SDS011;54576;52.020;5.536;2023-09-18T01:21:22;34.78;;;20.30;;
67776;SDS011;54576;52.020;5.536;2023-09-18T01:23:48;29.45;;;19.30;;
67776;SDS011;54576;52.020;5.536;2023-09-18T01:26:14;27.05;;;19.15;;
67776;SDS011;54576;52.020;5.536;2023-09-18T01:28:40;29.38;;;19.90;;
67776;SDS011;54576;52.020;5.536;2023-09-18T01:31:06;26.98;;;18.45;;
67776;SDS011;54576;52.020;5.536;2023-09-18T01:33:33;31.17;;;18.65;;
67776;SDS011;54576;52.020;5.536;2023-09-18T01:35:59;32.92;;;19.77;;
67776;SDS011;54576;52.020;5.536;2023-09-18T01:38:26;36.65;;;20.08;;
67776;SDS011;54576;52.020;5.536;2023-09-18T01:40:52;28.90;;;19.55;;
67776;SDS011;54576;52.020;5.536;2023-09-18T01:43:19;26.02;;;18.75;;
67776;SDS011;54576;52.020;5.536;2023-09-18T01:45:45;38.13;;;21.85;;
67776;SDS011;54576;52.020;5.536;2023-09-18T01:48:12;34.05;;;18.63;;
67776;SDS011;54576;52.020;5.536;2023-09-18T01:50:38;29.90;;;20.85;;
67776;SDS011;54576;52.020;5.536;2023-09-18T01:53:05;32.28;;;20.45;;
67776;SDS011;54576;52.020;5.536;2023-09-18T01:55:31;31.92;;;20.02;;
67776;SDS011;54576;52.020;5.536;2023-09-18T01:57:58;32.40;;;19.33;;
67776;SDS011;54576;52.020;5.536;2023-09-18T02:00:23;34.45;;;19.25;;
67776;SDS011;54576;52.020;5.536;2023-09-18T02:02:49;32.38;;;20.15;;
67776;SDS011;54576;52.020;5.536;2023-09-18T02:05:15;35.50;;;21.80;;
67776;SDS011;54576;52.020;5.536;2023-09-18T02:07:41;50.13;;;21.45;;
67776;SDS011;54576;52.020;5.536;2023-09-18T02:10:07;33.90;;;20.83;;
67776;SDS011;54576;52.020;5.536;2023-09-18T02:12:34;37.90;;;21.70;;
67776;SDS011;54576;52.020;5.536;2023-09-18T02:14:59;34.60;;;20.58;;
67776;SDS011;54576;52.020;5.536;2023-09-18T02:17:29;35.45;;;19.80;;
67776;SDS011;54576;52.020;5.536;2023-09-18T02:19:55;34.05;;;20.25;;
67776;SDS011;54576;52.020;5.536;2023-09-18T02:22:20;35.22;;;19.98;;
67776;SDS011;54576;52.020;5.536;2023-09-18T02:24:46;34.30;;;20.35;;
67776;SDS011;54576;52.020;5.536;2023-09-18T02:27:11;31.48;;;19.30;;
67776;SDS011;54576;52.020;5.536;2023-09-18T02:29:37;40.30;;;20.20;;
67776;SDS011;54576;52.020;5.536;2023-09-18T02:32:03;36.08;;;20.38;;
67776;SDS011;54576;52.020;5.536;2023-09-18T02:34:28;40.40;;;20.92;;
67776;SDS011;54576;52.020;5.536;2023-09-18T02:36:54;36.22;;;22.45;;
67776;SDS011;54576;52.020;5.536;2023-09-18T02:39:19;37.63;;;22.15;;
67776;SDS011;54576;52.020;5.536;2023-09-18T02:41:45;42.33;;;23.13;;
67776;SDS011;54576;52.020;5.536;2023-09-18T02:44:11;36.67;;;21.40;;
67776;SDS011;54576;52.020;5.536;2023-09-18T02:46:37;38.55;;;23.55;;
67776;SDS011;54576;52.020;5.536;2023-09-18T02:49:03;35.38;;;23.17;;
67776;SDS011;54576;52.020;5.536;2023-09-18T02:51:29;34.97;;;22.33;;
67776;SDS011;54576;52.020;5.536;2023-09-18T02:53:56;46.92;;;23.67;;
67776;SDS011;54576;52.020;5.536;2023-09-18T02:56:25;46.60;;;22.15;;
67776;SDS011;54576;52.020;5.536;2023-09-18T02:58:50;39.72;;;23.27;;
67776;SDS011;54576;52.020;5.536;2023-09-18T03:01:16;38.58;;;23.90;;
67776;SDS011;54576;52.020;5.536;2023-09-18T03:03:42;41.65;;;24.27;;
67776;SDS011;54576;52.020;5.536;2023-09-18T03:06:08;45.42;;;25.05;;
67776;SDS011;54576;52.020;5.536;2023-09-18T03:08:33;49.92;;;25.90;;
67776;SDS011;54576;52.020;5.536;2023-09-18T03:11:02;49.50;;;24.33;;
67776;SDS011;54576;52.020;5.536;2023-09-18T03:13:28;43.83;;;26.02;;
67776;SDS011;54576;52.020;5.536;2023-09-18T03:15:55;41.97;;;24.05;;
67776;SDS011;54576;52.020;5.536;2023-09-18T03:20:49;44.50;;;25.90;;
67776;SDS011;54576;52.020;5.536;2023-09-18T03:23:14;42.22;;;24.75;;
67776;SDS011;54576;52.020;5.536;2023-09-18T03:25:40;38.53;;;24.90;;
67776;SDS011;54576;52.020;5.536;2023-09-18T03:28:05;42.38;;;24.20;;
67776;SDS011;54576;52.020;5.536;2023-09-18T03:30:31;32.10;;;20.70;;
67776;SDS011;54576;52.020;5.536;2023-09-18T03:32:57;34.42;;;22.92;;
67776;SDS011;54576;52.020;5.536;2023-09-18T03:35:22;44.95;;;22.58;;
67776;SDS011;54576;52.020;5.536;2023-09-18T03:37:49;41.25;;;23.23;;
67776;SDS011;54576;52.020;5.536;2023-09-18T03:40:16;40.00;;;22.95;;
67776;SDS011;54576;52.020;5.536;2023-09-18T03:42:42;41.13;;;23.23;;
67776;SDS011;54576;52.020;5.536;2023-09-18T03:45:08;31.05;;;21.15;;
67776;SDS011;54576;52.020;5.536;2023-09-18T03:47:35;36.45;;;20.27;;
67776;SDS011;54576;52.020;5.536;2023-09-18T03:50:11;27.88;;;16.65;;
67776;SDS011;54576;52.020;5.536;2023-09-18T03:52:37;26.35;;;15.00;;
67776;SDS011;54576;52.020;5.536;2023-09-18T03:55:04;28.70;;;14.50;;
67776;SDS011;54576;52.020;5.536;2023-09-18T03:57:30;25.30;;;13.52;;
67776;SDS011;54576;52.020;5.536;2023-09-18T03:59:56;24.85;;;13.45;;
67776;SDS011;54576;52.020;5.536;2023-09-18T04:02:23;24.55;;;13.63;;
67776;SDS011;54576;52.020;5.536;2023-09-18T04:04:50;29.80;;;13.90;;
67776;SDS011;54576;52.020;5.536;2023-09-18T04:07:16;31.20;;;13.57;;
67776;SDS011;54576;52.020;5.536;2023-09-18T04:09:43;27.38;;;13.75;;
67776;SDS011;54576;52.020;5.536;2023-09-18T04:12:09;25.30;;;13.40;;
67776;SDS011;54576;52.020;5.536;2023-09-18T04:14:34;22.98;;;13.55;;
67776;SDS011;54576;52.020;5.536;2023-09-18T04:17:00;23.83;;;13.00;;
67776;SDS011;54576;52.020;5.536;2023-09-18T04:19:26;30.98;;;13.93;;
67776;SDS011;54576;52.020;5.536;2023-09-18T04:21:52;27.55;;;13.13;;
67776;SDS011;54576;52.020;5.536;2023-09-18T04:24:25;24.60;;;13.43;;
67776;SDS011;54576;52.020;5.536;2023-09-18T04:26:51;27.77;;;12.52;;
67776;SDS011;54576;52.020;5.536;2023-09-18T04:29:17;21.52;;;12.55;;
67776;SDS011;54576;52.020;5.536;2023-09-18T04:31:43;25.70;;;13.40;;
67776;SDS011;54576;52.020;5.536;2023-09-18T04:34:11;27.83;;;12.35;;
67776;SDS011;54576;52.020;5.536;2023-09-18T04:36:37;26.38;;;13.88;;
67776;SDS011;54576;52.020;5.536;2023-09-18T04:39:03;28.25;;;13.45;;
67776;SDS011;54576;52.020;5.536;2023-09-18T04:41:30;30.73;;;13.77;;
67776;SDS011;54576;52.020;5.536;2023-09-18T04:43:56;20.58;;;12.23;;
67776;SDS011;54576;52.020;5.536;2023-09-18T04:46:21;26.95;;;13.45;;
67776;SDS011;54576;52.020;5.536;2023-09-18T04:48:48;25.17;;;12.90;;
67776;SDS011;54576;52.020;5.536;2023-09-18T04:51:14;34.05;;;12.65;;
67776;SDS011;54576;52.020;5.536;2023-09-18T04:53:40;27.13;;;14.15;;
67776;SDS011;54576;52.020;5.536;2023-09-18T04:56:06;30.90;;;14.18;;
67776;SDS011;54576;52.020;5.536;2023-09-18T04:58:32;28.63;;;13.18;;
67776;SDS011;54576;52.020;5.536;2023-09-18T05:00:59;29.80;;;14.13;;
67776;SDS011;54576;52.020;5.536;2023-09-18T05:03:35;42.95;;;14.40;;
67776;SDS011;54576;52.020;5.536;2023-09-18T05:06:02;43.70;;;14.63;;
67776;SDS011;54576;52.020;5.536;2023-09-18T05:08:29;27.90;;;13.23;;
67776;SDS011;54576;52.020;5.536;2023-09-18T05:10:55;22.38;;;11.77;;
67776;SDS011;54576;52.020;5.536;2023-09-18T05:13:22;24.13;;;13.07;;
67776;SDS011;54576;52.020;5.536;2023-09-18T05:15:48;24.52;;;12.82;;
67776;SDS011;54576;52.020;5.536;2023-09-18T05:18:14;30.60;;;14.38;;
67776;SDS011;54576;52.020;5.536;2023-09-18T05:20:39;23.30;;;12.00;;
67776;SDS011;54576;52.020;5.536;2023-09-18T05:23:05;23.35;;;12.95;;
67776;SDS011;54576;52.020;5.536;2023-09-18T05:25:31;21.63;;;11.18;;
67776;SDS011;54576;52.020;5.536;2023-09-18T05:27:57;19.83;;;10.35;;
67776;SDS011;54576;52.020;5.536;2023-09-18T05:30:27;18.77;;;10.48;;
67776;SDS011;54576;52.020;5.536;2023-09-18T05:32:56;20.63;;;10.82;;
67776;SDS011;54576;52.020;5.536;2023-09-18T05:35:33;20.30;;;11.40;;
67776;SDS011;54576;52.020;5.536;2023-09-18T05:38:00;21.52;;;11.95;;
67776;SDS011;54576;52.020;5.536;2023-09-18T05:40:26;24.23;;;11.00;;
67776;SDS011;54576;52.020;5.536;2023-09-18T05:42:53;20.60;;;11.20;;
67776;SDS011;54576;52.020;5.536;2023-09-18T05:45:19;19.20;;;11.13;;
67776;SDS011;54576;52.020;5.536;2023-09-18T05:47:45;20.58;;;10.60;;
67776;SDS011;54576;52.020;5.536;2023-09-18T05:50:12;28.92;;;12.88;;
67776;SDS011;54576;52.020;5.536;2023-09-18T05:52:42;22.27;;;11.18;;
67776;SDS011;54576;52.020;5.536;2023-09-18T05:55:08;19.70;;;11.18;;
67776;SDS011;54576;52.020;5.536;2023-09-18T05:57:35;23.00;;;11.95;;
67776;SDS011;54576;52.020;5.536;2023-09-18T06:00:01;21.15;;;11.80;;
67776;SDS011;54576;52.020;5.536;2023-09-18T06:02:28;20.92;;;10.80;;
67776;SDS011;54576;52.020;5.536;2023-09-18T06:04:54;22.88;;;10.85;;
67776;SDS011;54576;52.020;5.536;2023-09-18T06:07:22;22.45;;;12.32;;
67776;SDS011;54576;52.020;5.536;2023-09-18T06:09:48;20.45;;;11.02;;
67776;SDS011;54576;52.020;5.536;2023-09-18T06:12:14;30.52;;;11.65;;
67776;SDS011;54576;52.020;5.536;2023-09-18T06:14:40;26.73;;;11.55;;
67776;SDS011;54576;52.020;5.536;2023-09-18T06:17:07;28.38;;;11.75;;
67776;SDS011;54576;52.020;5.536;2023-09-18T06:19:34;30.08;;;11.90;;
67776;SDS011;54576;52.020;5.536;2023-09-18T06:22:00;18.05;;;11.63;;
67776;SDS011;54576;52.020;5.536;2023-09-18T06:24:26;24.02;;;11.75;;
67776;SDS011;54576;52.020;5.536;2023-09-18T06:26:53;31.05;;;12.05;;
67776;SDS011;54576;52.020;5.536;2023-09-18T06:29:19;22.58;;;11.18;;
67776;SDS011;54576;52.020;5.536;2023-09-18T06:31:45;15.80;;;10.00;;
67776;SDS011;54576;52.020;5.536;2023-09-18T06:34:11;21.60;;;12.25;;
67776;SDS011;54576;52.020;5.536;2023-09-18T06:36:37;28.10;;;10.82;;
67776;SDS011;54576;52.020;5.536;2023-09-18T06:39:03;20.63;;;11.40;;
67776;SDS011;54576;52.020;5.536;2023-09-18T06:41:32;24.30;;;12.15;;
67776;SDS011;54576;52.020;5.536;2023-09-18T06:44:01;21.38;;;11.30;;
67776;SDS011;54576;52.020;5.536;2023-09-18T06:46:31;23.30;;;11.10;;
67776;SDS011;54576;52.020;5.536;2023-09-18T06:48:57;20.00;;;11.20;;
67776;SDS011;54576;52.020;5.536;2023-09-18T06:51:25;23.30;;;10.50;;
67776;SDS011;54576;52.020;5.536;2023-09-18T06:53:52;17.55;;;10.10;;
67776;SDS011;54576;52.020;5.536;2023-09-18T06:56:18;22.83;;;10.60;;
67776;SDS011;54576;52.020;5.536;2023-09-18T06:58:44;21.42;;;10.00;;
67776;SDS011;54576;52.020;5.536;2023-09-18T07:01:12;19.47;;;9.57;;
67776;SDS011;54576;52.020;5.536;2023-09-18T07:03:40;15.48;;;9.93;;
67776;SDS011;54576;52.020;5.536;2023-09-18T07:06:06;15.43;;;10.18;;
67776;SDS011;54576;52.020;5.536;2023-09-18T07:08:32;17.90;;;10.10;;
67776;SDS011;54576;52.020;5.536;2023-09-18T07:10:58;13.07;;;8.75;;
67776;SDS011;54576;52.020;5.536;2023-09-18T07:13:24;18.00;;;8.45;;
67776;SDS011;54576;52.020;5.536;2023-09-18T07:15:50;16.15;;;8.60;;
67776;SDS011;54576;52.020;5.536;2023-09-18T07:18:19;24.70;;;8.70;;
67776;SDS011;54576;52.020;5.536;2023-09-18T07:20:45;18.55;;;7.65;;
67776;SDS011;54576;52.020;5.536;2023-09-18T07:23:11;14.27;;;7.93;;
67776;SDS011;54576;52.020;5.536;2023-09-18T07:25:38;17.40;;;7.32;;
67776;SDS011;54576;52.020;5.536;2023-09-18T07:28:05;14.20;;;6.60;;
67776;SDS011;54576;52.020;5.536;2023-09-18T07:30:31;13.35;;;7.25;;
67776;SDS011;54576;52.020;5.536;2023-09-18T07:32:57;11.43;;;6.80;;
67776;SDS011;54576;52.020;5.536;2023-09-18T07:35:24;11.82;;;6.85;;
67776;SDS011;54576;52.020;5.536;2023-09-18T07:37:50;12.10;;;6.80;;
67776;SDS011;54576;52.020;5.536;2023-09-18T07:40:16;10.40;;;6.20;;
67776;SDS011;54576;52.020;5.536;2023-09-18T07:42:42;12.05;;;6.10;;
67776;SDS011;54576;52.020;5.536;2023-09-18T07:45:09;18.17;;;5.47;;
67776;SDS011;54576;52.020;5.536;2023-09-18T07:47:35;11.27;;;6.05;;
67776;SDS011;54576;52.020;5.536;2023-09-18T07:50:01;13.70;;;6.00;;
67776;SDS011;54576;52.020;5.536;2023-09-18T07:52:27;13.07;;;6.10;;
67776;SDS011;54576;52.020;5.536;2023-09-18T07:54:53;10.68;;;5.00;;
67776;SDS011;54576;52.020;5.536;2023-09-18T07:57:21;10.05;;;5.07;;
67776;SDS011;54576;52.020;5.536;2023-09-18T07:59:48;11.57;;;5.40;;
67776;SDS011;54576;52.020;5.536;2023-09-18T08:02:14;14.23;;;5.32;;
67776;SDS011;54576;52.020;5.536;2023-09-18T08:04:40;7.10;;;4.93;;
67776;SDS011;54576;52.020;5.536;2023-09-18T08:07:07;20.90;;;5.55;;
67776;SDS011;54576;52.020;5.536;2023-09-18T08:09:33;8.50;;;4.63;;
67776;SDS011;54576;52.020;5.536;2023-09-18T08:12:03;9.20;;;4.80;;
67776;SDS011;54576;52.020;5.536;2023-09-18T08:14:29;11.75;;;4.53;;
67776;SDS011;54576;52.020;5.536;2023-09-18T08:16:58;16.05;;;4.20;;
67776;SDS011;54576;52.020;5.536;2023-09-18T08:19:25;15.07;;;5.18;;
67776;SDS011;54576;52.020;5.536;2023-09-18T08:21:52;10.45;;;3.83;;
67776;SDS011;54576;52.020;5.536;2023-09-18T08:24:19;13.37;;;3.90;;
67776;SDS011;54576;52.020;5.536;2023-09-18T08:26:45;7.05;;;3.70;;
67776;SDS011;54576;52.020;5.536;2023-09-18T08:29:11;8.77;;;3.58;;
67776;SDS011;54576;52.020;5.536;2023-09-18T08:31:37;14.68;;;3.63;;
67776;SDS011;54576;52.020;5.536;2023-09-18T08:34:03;7.35;;;3.45;;
67776;SDS011;54576;52.020;5.536;2023-09-18T08:36:29;7.30;;;3.25;;
67776;SDS011;54576;52.020;5.536;2023-09-18T08:38:56;6.60;;;3.13;;
67776;SDS011;54576;52.020;5.536;2023-09-18T08:41:23;4.80;;;2.95;;
67776;SDS011;54576;52.020;5.536;2023-09-18T08:43:52;8.60;;;2.60;;
67776;SDS011;54576;52.020;5.536;2023-09-18T08:46:18;4.28;;;3.20;;
67776;SDS011;54576;52.020;5.536;2023-09-18T08:48:46;6.95;;;2.75;;
67776;SDS011;54576;52.020;5.536;2023-09-18T08:51:12;5.85;;;2.85;;
67776;SDS011;54576;52.020;5.536;2023-09-18T08:53:38;3.78;;;2.63;;
67776;SDS011;54576;52.020;5.536;2023-09-18T08:56:04;11.60;;;2.67;;
67776;SDS011;54576;52.020;5.536;2023-09-18T08:58:32;5.63;;;2.55;;
67776;SDS011;54576;52.020;5.536;2023-09-18T09:01:00;5.35;;;2.80;;
67776;SDS011;54576;52.020;5.536;2023-09-18T09:03:28;3.15;;;2.50;;
67776;SDS011;54576;52.020;5.536;2023-09-18T09:05:54;3.67;;;2.55;;
67776;SDS011;54576;52.020;5.536;2023-09-18T09:08:20;18.02;;;2.80;;
67776;SDS011;54576;52.020;5.536;2023-09-18T09:10:49;3.42;;;2.45;;
67776;SDS011;54576;52.020;5.536;2023-09-18T09:15:45;5.57;;;2.53;;
67776;SDS011;54576;52.020;5.536;2023-09-18T09:18:11;4.10;;;2.20;;
67776;SDS011;54576;52.020;5.536;2023-09-18T09:20:37;7.63;;;2.33;;
67776;SDS011;54576;52.020;5.536;2023-09-18T09:23:05;3.75;;;2.42;;
67776;SDS011;54576;52.020;5.536;2023-09-18T09:25:32;3.65;;;2.28;;
67776;SDS011;54576;52.020;5.536;2023-09-18T09:27:59;3.90;;;2.00;;
67776;SDS011;54576;52.020;5.536;2023-09-18T09:30:26;2.90;;;2.20;;
67776;SDS011;54576;52.020;5.536;2023-09-18T09:32:53;7.40;;;2.38;;
67776;SDS011;54576;52.020;5.536;2023-09-18T09:35:20;4.20;;;2.13;;
67776;SDS011;54576;52.020;5.536;2023-09-18T09:37:46;3.60;;;1.95;;
67776;SDS011;54576;52.020;5.536;2023-09-18T09:40:12;7.95;;;2.28;;
67776;SDS011;54576;52.020;5.536;2023-09-18T09:42:39;5.38;;;2.30;;
67776;SDS011;54576;52.020;5.536;2023-09-18T09:45:12;3.35;;;2.13;;
67776;SDS011;54576;52.020;5.536;2023-09-18T09:47:39;2.17;;;1.83;;
67776;SDS011;54576;52.020;5.536;2023-09-18T09:50:09;7.95;;;1.55;;
67776;SDS011;54576;52.020;5.536;2023-09-18T09:52:35;3.00;;;1.60;;
67776;SDS011;54576;52.020;5.536;2023-09-18T09:55:05;7.63;;;2.00;;
67776;SDS011;54576;52.020;5.536;2023-09-18T09:57:46;15.35;;;2.35;;
67776;SDS011;54576;52.020;5.536;2023-09-18T10:00:15;6.22;;;1.92;;
67776;SDS011;54576;52.020;5.536;2023-09-18T10:02:58;6.70;;;2.63;;
67776;SDS011;54576;52.020;5.536;2023-09-18T10:05:25;3.92;;;2.13;;
67776;SDS011;54576;52.020;5.536;2023-09-18T10:07:54;2.25;;;1.92;;
67776;SDS011;54576;52.020;5.536;2023-09-18T10:10:23;3.00;;;1.70;;
67776;SDS011;54576;52.020;5.536;2023-09-18T10:12:54;7.18;;;2.00;;
67776;SDS011;54576;52.020;5.536;2023-09-18T10:15:26;13.70;;;2.13;;
67776;SDS011;54576;52.020;5.536;2023-09-18T10:17:52;4.50;;;1.88;;
67776;SDS011;54576;52.020;5.536;2023-09-18T10:20:24;5.38;;;2.00;;
67776;SDS011;54576;52.020;5.536;2023-09-18T10:22:52;6.53;;;2.03;;
67776;SDS011;54576;52.020;5.536;2023-09-18T10:25:21;6.57;;;1.95;;
67776;SDS011;54576;52.020;5.536;2023-09-18T10:27:50;5.82;;;2.00;;
67776;SDS011;54576;52.020;5.536;2023-09-18T10:30:23;13.30;;;2.65;;
67776;SDS011;54576;52.020;5.536;2023-09-18T10:32:50;17.92;;;2.92;;
67776;SDS011;54576;52.020;5.536;2023-09-18T10:35:16;6.25;;;2.83;;
67776;SDS011;54576;52.020;5.536;2023-09-18T10:37:43;4.65;;;2.90;;
67776;SDS011;54576;52.020;5.536;2023-09-18T10:40:10;10.80;;;3.03;;
67776;SDS011;54576;52.020;5.536;2023-09-18T10:42:39;9.65;;;3.53;;
67776;SDS011;54576;52.020;5.536;2023-09-18T10:45:09;11.02;;;3.65;;
67776;SDS011;54576;52.020;5.536;2023-09-18T10:47:37;9.25;;;4.63;;
67776;SDS011;54576;52.020;5.536;2023-09-18T10:50:05;11.70;;;5.10;;
67776;SDS011;54576;52.020;5.536;2023-09-18T10:52:32;8.40;;;4.15;;
67776;SDS011;54576;52.020;5.536;2023-09-18T10:57:35;7.80;;;4.95;;
67776;SDS011;54576;52.020;5.536;2023-09-18T11:00:02;5.95;;;4.47;;
67776;SDS011;54576;52.020;5.536;2023-09-18T11:02:38;10.60;;;4.80;;
67776;SDS011;54576;52.020;5.536;2023-09-18T11:07:32;7.68;;;4.78;;
67776;SDS011;54576;52.020;5.536;2023-09-18T11:09:58;7.32;;;5.13;;
67776;SDS011;54576;52.020;5.536;2023-09-18T11:12:41;15.77;;;5.32;;
67776;SDS011;54576;52.020;5.536;2023-09-18T11:15:09;12.32;;;4.97;;
67776;SDS011;54576;52.020;5.536;2023-09-18T11:17:58;17.63;;;4.55;;
67776;SDS011;54576;52.020;5.536;2023-09-18T11:20:25;5.85;;;4.03;;
67776;SDS011;54576;52.020;5.536;2023-09-18T11:22:57;11.48;;;4.57;;
67776;SDS011;54576;52.020;5.536;2023-09-18T11:28:04;8.10;;;4.57;;
67776;SDS011;54576;52.020;5.536;2023-09-18T11:30:35;13.35;;;3.28;;
67776;SDS011;54576;52.020;5.536;2023-09-18T11:33:04;11.45;;;3.10;;
67776;SDS011;54576;52.020;5.536;2023-09-18T11:35:32;11.25;;;2.88;;
67776;SDS011;54576;52.020;5.536;2023-09-18T11:38:08;5.35;;;2.95;;
67776;SDS011;54576;52.020;5.536;2023-09-18T11:40:38;8.27;;;2.88;;
67776;SDS011;54576;52.020;5.536;2023-09-18T11:43:19;8.30;;;2.80;;
67776;SDS011;54576;52.020;5.536;2023-09-18T11:45:50;8.65;;;3.30;;
67776;SDS011;54576;52.020;5.536;2023-09-18T11:48:17;6.53;;;2.45;;
67776;SDS011;54576;52.020;5.536;2023-09-18T11:50:44;6.38;;;2.83;;
67776;SDS011;54576;52.020;5.536;2023-09-18T11:53:11;9.77;;;2.67;;
67776;SDS011;54576;52.020;5.536;2023-09-18T11:55:38;3.30;;;2.28;;
67776;SDS011;54576;52.020;5.536;2023-09-18T11:58:05;13.07;;;2.30;;
67776;SDS011;54576;52.020;5.536;2023-09-18T12:00:31;10.05;;;2.70;;
67776;SDS011;54576;52.020;5.536;2023-09-18T12:02:57;6.43;;;2.63;;
67776;SDS011;54576;52.020;5.536;2023-09-18T12:05:37;9.98;;;2.67;;
67776;SDS011;54576;52.020;5.536;2023-09-18T12:08:03;9.80;;;2.60;;
67776;SDS011;54576;52.020;5.536;2023-09-18T12:10:29;9.52;;;2.60;;
67776;SDS011;54576;52.020;5.536;2023-09-18T12:12:54;4.15;;;2.45;;
67776;SDS011;54576;52.020;5.536;2023-09-18T12:15:20;8.60;;;2.83;;
67776;SDS011;54576;52.020;5.536;2023-09-18T12:17:46;7.00;;;2.40;;
67776;SDS011;54576;52.020;5.536;2023-09-18T12:20:15;4.57;;;2.60;;
67776;SDS011;54576;52.020;5.536;2023-09-18T12:22:46;7.90;;;2.70;;
67776;SDS011;54576;52.020;5.536;2023-09-18T12:25:15;11.88;;;2.58;;
67776;SDS011;54576;52.020;5.536;2023-09-18T12:27:43;9.05;;;2.53;;
67776;SDS011;54576;52.020;5.536;2023-09-18T12:30:16;8.43;;;3.17;;
67776;SDS011;54576;52.020;5.536;2023-09-18T12:32:45;9.05;;;2.95;;
67776;SDS011;54576;52.020;5.536;2023-09-18T12:35:14;2.88;;;2.28;;
67776;SDS011;54576;52.020;5.536;2023-09-18T12:37:48;5.13;;;2.75;;
67776;SDS011;54576;52.020;5.536;2023-09-18T12:40:21;8.32;;;3.03;;
67776;SDS011;54576;52.020;5.536;2023-09-18T12:42:51;12.18;;;2.65;;
67776;SDS011;54576;52.020;5.536;2023-09-18T12:45:19;13.68;;;3.13;;
67776;SDS011;54576;52.020;5.536;2023-09-18T12:47:45;9.07;;;2.63;;
67776;SDS011;54576;52.020;5.536;2023-09-18T12:50:14;5.03;;;2.78;;
67776;SDS011;54576;52.020;5.536;2023-09-18T12:52:40;8.15;;;3.67;;
67776;SDS011;54576;52.020;5.536;2023-09-18T12:55:06;7.95;;;2.70;;
67776;SDS011;54576;52.020;5.536;2023-09-18T12:57:32;4.15;;;3.03;;
67776;SDS011;54576;52.020;5.536;2023-09-18T12:59:58;11.30;;;2.60;;
67776;SDS011;54576;52.020;5.536;2023-09-18T13:02:24;8.00;;;2.72;;
67776;SDS011;54576;52.020;5.536;2023-09-18T13:04:56;4.70;;;2.53;;
67776;SDS011;54576;52.020;5.536;2023-09-18T13:07:24;6.78;;;2.40;;
67776;SDS011;54576;52.020;5.536;2023-09-18T13:10:01;14.82;;;2.10;;
67776;SDS011;54576;52.020;5.536;2023-09-18T13:12:48;5.87;;;2.37;;
67776;SDS011;54576;52.020;5.536;2023-09-18T13:15:25;9.77;;;2.55;;
67776;SDS011;54576;52.020;5.536;2023-09-18T13:17:56;5.05;;;2.28;;
67776;SDS011;54576;52.020;5.536;2023-09-18T13:20:23;11.63;;;2.45;;
67776;SDS011;54576;52.020;5.536;2023-09-18T13:22:52;3.00;;;2.08;;
67776;SDS011;54576;52.020;5.536;2023-09-18T13:25:22;6.63;;;2.30;;
67776;SDS011;54576;52.020;5.536;2023-09-18T13:27:49;10.38;;;2.40;;
67776;SDS011;54576;52.020;5.536;2023-09-18T13:30:16;6.45;;;1.90;;
67776;SDS011;54576;52.020;5.536;2023-09-18T13:32:47;9.05;;;2.97;;
67776;SDS011;54576;52.020;5.536;2023-09-18T13:35:13;13.70;;;2.45;;
67776;SDS011;54576;52.020;5.536;2023-09-18T13:37:39;6.45;;;1.85;;
67776;SDS011;54576;52.020;5.536;2023-09-18T13:40:05;4.70;;;2.00;;
67776;SDS011;54576;52.020;5.536;2023-09-18T13:42:32;3.47;;;1.77;;
67776;SDS011;54576;52.020;5.536;2023-09-18T13:44:58;3.90;;;1.83;;
67776;SDS011;54576;52.020;5.536;2023-09-18T13:47:29;6.85;;;2.00;;
67776;SDS011;54576;52.020;5.536;2023-09-18T13:49:55;3.00;;;1.85;;
67776;SDS011;54576;52.020;5.536;2023-09-18T13:52:27;3.92;;;1.83;;
67776;SDS011;54576;52.020;5.536;2023-09-18T13:54:54;6.03;;;1.83;;
67776;SDS011;54576;52.020;5.536;2023-09-18T13:57:20;2.65;;;1.90;;
67776;SDS011;54576;52.020;5.536;2023-09-18T13:59:47;4.90;;;2.40;;
67776;SDS011;54576;52.020;5.536;2023-09-18T14:02:14;9.00;;;2.20;;
67776;SDS011;54576;52.020;5.536;2023-09-18T14:04:40;9.77;;;2.58;;
67776;SDS011;54576;52.020;5.536;2023-09-18T14:07:07;4.28;;;2.08;;
67776;SDS011;54576;52.020;5.536;2023-09-18T14:09:34;5.65;;;2.20;;
67776;SDS011;54576;52.020;5.536;2023-09-18T14:12:00;4.28;;;2.10;;
67776;SDS011;54576;52.020;5.536;2023-09-18T14:14:27;6.90;;;1.80;;
67776;SDS011;54576;52.020;5.536;2023-09-18T14:16:54;6.05;;;2.15;;
67776;SDS011;54576;52.020;5.536;2023-09-18T14:19:19;4.00;;;1.83;;
67776;SDS011;54576;52.020;5.536;2023-09-18T14:21:46;8.02;;;2.13;;
67776;SDS011;54576;52.020;5.536;2023-09-18T14:24:14;5.78;;;1.88;;
67776;SDS011;54576;52.020;5.536;2023-09-18T14:26:42;3.70;;;1.90;;
67776;SDS011;54576;52.020;5.536;2023-09-18T14:29:07;10.82;;;2.25;;
67776;SDS011;54576;52.020;5.536;2023-09-18T14:31:34;5.88;;;1.70;;
67776;SDS011;54576;52.020;5.536;2023-09-18T14:34:01;6.30;;;2.35;;
67776;SDS011;54576;52.020;5.536;2023-09-18T14:36:26;5.60;;;2.05;;
67776;SDS011;54576;52.020;5.536;2023-09-18T14:38:52;4.10;;;1.33;;
67776;SDS011;54576;52.020;5.536;2023-09-18T14:41:20;5.15;;;1.83;;
67776;SDS011;54576;52.020;5.536;2023-09-18T14:43:46;6.65;;;1.60;;
67776;SDS011;54576;52.020;5.536;2023-09-18T14:46:12;6.88;;;1.70;;